Weather History for Centralia, IL

Change the Weather History Date:

Tuesday, April 30, 2013

  Actual Average (KSLO) Record (KSLO)
Temperature  
Mean Temperature 72 °F -  
Max Temperature 85 °F 73 °F 87 °F (1986)
Min Temperature 61 °F 49 °F 33 °F (1969)
Cooling Degree Days 8    
Growing Degree Days 22 (Base 50)    
Moisture  
Dew Point 59 °F    
Average Humidity 63    
Maximum Humidity 82    
Minimum Humidity 38    
Precipitation  
Precipitation 0.00 in - - ()
Sea Level Pressure  
Sea Level Pressure 29.92 in    
Wind  
Wind Speed 10 mph (SSE)    
Max Wind Speed 15 mph    
Max Gust Speed 20 mph    
Visibility 10 miles    
Events      
Averages and records for this station are not official NWS values.
T = Trace of Precipitation, MM = Missing Value Source: NWS Daily Summary

Daily Weather History Graph

Daily Weather History Graph

Search for Another Location

Airport:

Trip Planner

Search our weather history database for the weather conditions in past years. The results will help you decide how hot, cold, wet, or windy it might be!

Date:

Astronomy

Apr. 30, 2013 Rise Set
Actual Time 6:00 AM CDT 7:47 PM CDT
Civil Twilight 5:31 AM CDT 8:16 PM CDT
Nautical Twilight 4:57 AM CDT 8:50 PM CDT
Astronomical Twilight 4:20 AM CDT 9:27 PM CDT
Moon 12:09 AM CDT (4/30) 10:29 AM CDT (4/30)
Length of Visible Light 14h 44m
Length of Day
13h 47m
Waning Gibbous, 70% of the Moon is Illuminated
Apr 30
Waning Gibbous
May 2
Last Quarter
May 9
New
May 17
First Quarter
May 24
Full

Hourly Weather History & Observations

Time (CDT) Temp. Heat Index Dew Point Humidity Pressure Visibility Wind Dir Wind Speed Gust Speed Precip Events Conditions
12:15 AM 65.3 °F - 58.1 °F 77% 29.87 in 10.0 mi SSE 10.4 mph - N/A   Clear
12:35 AM 65.1 °F - 58.1 °F 78% 29.87 in 10.0 mi SSE 10.4 mph - N/A   Clear
12:55 AM 64.4 °F - 58.1 °F 80% 29.87 in 10.0 mi South 10.4 mph - N/A   Clear
1:15 AM 64.2 °F - 58.1 °F 80% 29.87 in 10.0 mi South 10.4 mph - N/A   Clear
1:35 AM 63.9 °F - 57.7 °F 80% 29.87 in 10.0 mi South 10.4 mph - N/A   Clear
1:55 AM 63.5 °F - 57.6 °F 81% 29.87 in 10.0 mi South 10.4 mph - N/A   Clear
2:15 AM 63.1 °F - 57.6 °F 82% 29.87 in 10.0 mi South 10.4 mph - N/A   Clear
2:35 AM 63.1 °F - 57.4 °F 81% 29.86 in 10.0 mi SSE 10.4 mph - N/A   Clear
2:55 AM 63.5 °F - 57.2 °F 80% 29.86 in 10.0 mi South 10.4 mph - N/A   Clear
3:15 AM 63.5 °F - 57.2 °F 80% 29.86 in 10.0 mi SSE 10.4 mph - N/A   Clear
3:35 AM 63.7 °F - 57.2 °F 79% 29.87 in 10.0 mi SSE 11.5 mph - N/A   Clear
3:55 AM 63.0 °F - 56.8 °F 80% 29.87 in 10.0 mi South 10.4 mph - N/A   Clear
4:15 AM 62.6 °F - 56.8 °F 81% 29.87 in 10.0 mi SSE 9.2 mph - N/A   Clear
4:35 AM 62.2 °F - 56.5 °F 81% 29.87 in 10.0 mi SSE 9.2 mph - N/A   Clear
4:55 AM 62.2 °F - 56.5 °F 81% 29.87 in 10.0 mi SSE 8.1 mph - N/A   Clear
5:15 AM 62.2 °F - 56.3 °F 81% 29.88 in 10.0 mi SSE 8.1 mph - N/A   Clear
5:35 AM 62.2 °F - 56.3 °F 81% 29.88 in 10.0 mi SSE 8.1 mph - N/A   Clear
5:55 AM 62.1 °F - 56.3 °F 81% 29.89 in 10.0 mi SSE 9.2 mph - N/A   Clear
6:15 AM 61.9 °F - 56.3 °F 82% 29.89 in 10.0 mi SSE 8.1 mph - N/A   Clear
6:35 AM 62.6 °F - 56.3 °F 80% 29.90 in 10.0 mi SSE 6.9 mph - N/A   Clear
6:55 AM 63.3 °F - 56.5 °F 78% 29.90 in 10.0 mi SSE 8.1 mph - N/A   Clear
7:15 AM 64.4 °F - 56.8 °F 76% 29.91 in 10.0 mi SSE 8.1 mph - N/A   Clear
7:35 AM 65.5 °F - 57.4 °F 75% 29.92 in 10.0 mi SSE 10.4 mph - N/A   Clear
7:55 AM 67.1 °F - 57.9 °F 72% 29.92 in 10.0 mi South 9.2 mph - N/A   Clear
8:15 AM 68.9 °F - 57.4 °F 67% 29.92 in 10.0 mi South 10.4 mph 17.3 mph N/A   Clear
8:35 AM 70.5 °F - 58.5 °F 66% 29.93 in 10.0 mi South 10.4 mph - N/A   Clear
8:55 AM 72.0 °F - 58.3 °F 62% 29.93 in 10.0 mi South 15.0 mph 19.6 mph N/A   Clear
9:15 AM 73.0 °F - 59.0 °F 61% 29.93 in 10.0 mi South 13.8 mph 17.3 mph N/A   Clear
9:35 AM 74.1 °F - 59.7 °F 61% 29.94 in 10.0 mi South 12.7 mph 16.1 mph N/A   Clear
9:55 AM 75.0 °F - 59.7 °F 59% 29.94 in 10.0 mi South 11.5 mph - N/A   Clear
10:15 AM 76.1 °F - 60.8 °F 59% 29.94 in 10.0 mi South 10.4 mph - N/A   Clear
10:35 AM 76.8 °F - 60.8 °F 58% 29.94 in 10.0 mi South 11.5 mph - N/A   Clear
10:55 AM 78.1 °F - 61.2 °F 56% 29.94 in 10.0 mi South 9.2 mph - N/A   Clear
11:15 AM 78.6 °F - 60.1 °F 53% 29.95 in 10.0 mi South 9.2 mph - N/A   Clear
11:35 AM 80.1 °F 81.1 °F 60.8 °F 52% 29.94 in 10.0 mi South 6.9 mph - N/A   Clear
11:55 AM 81.0 °F 82.1 °F 62.4 °F 53% 29.94 in 10.0 mi South 9.2 mph - N/A   Clear
12:15 PM 81.7 °F 82.6 °F 61.7 °F 51% 29.93 in 10.0 mi SSE 9.2 mph - N/A   Clear
12:35 PM 81.7 °F 82.2 °F 60.4 °F 48% 29.92 in 10.0 mi SSE 8.1 mph - N/A   Clear
12:55 PM 82.6 °F 82.8 °F 59.9 °F 46% 29.92 in 10.0 mi SSE 9.2 mph - N/A   Clear
1:15 PM 83.1 °F 83.3 °F 60.6 °F 46% 29.91 in 10.0 mi South 6.9 mph - N/A   Clear
1:35 PM 83.3 °F 83.2 °F 59.4 °F 44% 29.90 in 10.0 mi South 8.1 mph - N/A   Clear
1:55 PM 84.2 °F 84.4 °F 60.6 °F 45% 29.91 in 10.0 mi South 5.8 mph - N/A   Clear
2:15 PM 84.6 °F 84.6 °F 60.3 °F 44% 29.91 in 10.0 mi South 8.1 mph - N/A   Clear
2:35 PM 84.2 °F 84.0 °F 59.7 °F 43% 29.91 in 10.0 mi South 8.1 mph - N/A   Scattered Clouds
2:55 PM 84.4 °F 84.0 °F 59.0 °F 42% 29.91 in 10.0 mi South 11.5 mph 16.1 mph N/A   Scattered Clouds
3:15 PM 83.7 °F 83.4 °F 59.0 °F 43% 29.91 in 10.0 mi South 9.2 mph 17.3 mph N/A   Scattered Clouds
3:35 PM 84.6 °F 84.2 °F 59.0 °F 42% 29.91 in 10.0 mi SSE 12.7 mph - N/A   Scattered Clouds
3:55 PM 84.4 °F 83.4 °F 56.3 °F 38% 29.90 in 10.0 mi SSE 12.7 mph 18.4 mph N/A   Scattered Clouds
4:15 PM 84.2 °F 83.5 °F 57.2 °F 40% 29.91 in 10.0 mi SSE 11.5 mph - N/A   Clear
4:35 PM 84.9 °F 84.4 °F 58.8 °F 41% 29.91 in 10.0 mi SSE 11.5 mph - N/A   Scattered Clouds
4:55 PM 83.5 °F 83.2 °F 58.8 °F 43% 29.91 in 10.0 mi SSE 11.5 mph - N/A   Scattered Clouds
5:15 PM 84.0 °F 83.2 °F 56.8 °F 39% 29.91 in 10.0 mi SSE 13.8 mph 18.4 mph N/A   Scattered Clouds
5:35 PM 83.3 °F 82.8 °F 57.0 °F 41% 29.91 in 10.0 mi SSE 12.7 mph - N/A   Clear
5:55 PM 82.6 °F 82.5 °F 58.6 °F 44% 29.91 in 10.0 mi SSE 10.4 mph - N/A   Clear
6:15 PM 81.5 °F 81.7 °F 58.8 °F 46% 29.92 in 10.0 mi South 12.7 mph - N/A   Clear
6:35 PM 80.6 °F 81.0 °F 58.6 °F 47% 29.92 in 10.0 mi South 10.4 mph - N/A   Clear
6:55 PM 78.8 °F - 59.0 °F 51% 29.92 in 10.0 mi South 9.2 mph - N/A   Clear
7:15 PM 77.7 °F - 59.0 °F 52% 29.93 in 10.0 mi SSE 8.1 mph - N/A   Clear
7:35 PM 75.4 °F - 59.4 °F 57% 29.94 in 10.0 mi South 6.9 mph - N/A   Clear
7:55 PM 73.6 °F - 59.0 °F 60% 29.94 in 10.0 mi SSE 5.8 mph - N/A   Clear
8:15 PM 72.5 °F - 58.6 °F 62% 29.95 in 10.0 mi SSE 5.8 mph - N/A   Clear
8:35 PM 70.3 °F - 59.4 °F 68% 29.95 in 10.0 mi SSE 5.8 mph - N/A   Clear
8:55 PM 69.3 °F - 59.9 °F 72% 29.96 in 10.0 mi SSE 4.6 mph - N/A   Clear
9:15 PM 68.9 °F - 59.9 °F 73% 29.97 in 10.0 mi SSE 3.5 mph - N/A   Clear
9:35 PM 69.1 °F - 59.7 °F 72% 29.98 in 10.0 mi SE 3.5 mph - N/A   Clear
9:55 PM 66.7 °F - 59.5 °F 78% 29.98 in 10.0 mi Calm Calm - N/A   Clear
10:15 PM 68.2 °F - 59.2 °F 73% 29.98 in 10.0 mi SE 4.6 mph - N/A   Clear
10:35 PM 68.0 °F - 58.6 °F 72% 29.98 in 10.0 mi SE 6.9 mph - N/A   Clear
10:55 PM 68.2 °F - 58.3 °F 71% 29.99 in 10.0 mi SE 5.8 mph - N/A   Clear
11:15 PM 68.2 °F - 58.1 °F 70% 29.99 in 10.0 mi SSE 5.8 mph - N/A   Clear
11:35 PM 67.1 °F - 57.7 °F 72% 29.99 in 10.0 mi SSE 5.8 mph - N/A   Clear
11:55 PM 65.8 °F - 58.1 °F 76% 29.99 in 10.0 mi SE 3.5 mph - N/A   Clear